sensor_id;sensor_type;location;lat;lon;timestamp;temperature;humidity
67897;DHT22;54698;48.428;9.964;2022-10-13T00:01:53;9.00;99.90
67897;DHT22;54698;48.428;9.964;2022-10-13T00:04:18;9.10;99.90
67897;DHT22;54698;48.428;9.964;2022-10-13T00:06:47;9.10;99.90
67897;DHT22;54698;48.428;9.964;2022-10-13T00:09:13;9.10;99.90
67897;DHT22;54698;48.428;9.964;2022-10-13T00:11:41;9.20;99.90
67897;DHT22;54698;48.428;9.964;2022-10-13T00:14:07;9.10;99.90
67897;DHT22;54698;48.428;9.964;2022-10-13T00:16:33;9.00;99.90
67897;DHT22;54698;48.428;9.964;2022-10-13T00:18:59;9.00;99.90
67897;DHT22;54698;48.428;9.964;2022-10-13T00:21:26;9.00;99.90
67897;DHT22;54698;48.428;9.964;2022-10-13T00:23:53;9.10;99.90
67897;DHT22;54698;48.428;9.964;2022-10-13T00:26:21;9.20;99.90
67897;DHT22;54698;48.428;9.964;2022-10-13T00:28:50;9.20;99.90
67897;DHT22;54698;48.428;9.964;2022-10-13T00:31:17;9.20;99.90
67897;DHT22;54698;48.428;9.964;2022-10-13T00:33:43;9.30;99.90
67897;DHT22;54698;48.428;9.964;2022-10-13T00:36:09;9.20;99.90
67897;DHT22;54698;48.428;9.964;2022-10-13T00:38:35;9.20;99.90
67897;DHT22;54698;48.428;9.964;2022-10-13T00:41:01;9.20;99.90
67897;DHT22;54698;48.428;9.964;2022-10-13T00:43:49;9.10;99.90
67897;DHT22;54698;48.428;9.964;2022-10-13T00:46:17;9.10;99.90
67897;DHT22;54698;48.428;9.964;2022-10-13T00:48:44;9.20;99.90
67897;DHT22;54698;48.428;9.964;2022-10-13T00:51:12;9.20;99.90
67897;DHT22;54698;48.428;9.964;2022-10-13T00:53:40;9.10;99.90
67897;DHT22;54698;48.428;9.964;2022-10-13T00:56:09;9.00;99.90
67897;DHT22;54698;48.428;9.964;2022-10-13T00:58:38;8.90;99.90
67897;DHT22;54698;48.428;9.964;2022-10-13T01:01:07;8.80;99.90
67897;DHT22;54698;48.428;9.964;2022-10-13T01:03:33;8.60;99.90
67897;DHT22;54698;48.428;9.964;2022-10-13T01:06:01;8.40;99.90
67897;DHT22;54698;48.428;9.964;2022-10-13T01:08:28;8.30;99.90
67897;DHT22;54698;48.428;9.964;2022-10-13T01:11:00;8.30;99.90
67897;DHT22;54698;48.428;9.964;2022-10-13T01:13:38;8.20;99.90
67897;DHT22;54698;48.428;9.964;2022-10-13T01:16:11;8.20;99.90
67897;DHT22;54698;48.428;9.964;2022-10-13T01:18:39;8.20;99.90
67897;DHT22;54698;48.428;9.964;2022-10-13T01:21:18;8.20;99.90
67897;DHT22;54698;48.428;9.964;2022-10-13T01:24:20;8.20;99.90
67897;DHT22;54698;48.428;9.964;2022-10-13T01:27:17;8.10;99.90
67897;DHT22;54698;48.428;9.964;2022-10-13T01:30:09;8.10;99.90
67897;DHT22;54698;48.428;9.964;2022-10-13T01:33:01;8.10;99.90
67897;DHT22;54698;48.428;9.964;2022-10-13T01:35:53;8.20;99.90
67897;DHT22;54698;48.428;9.964;2022-10-13T01:38:29;8.40;99.90
67897;DHT22;54698;48.428;9.964;2022-10-13T01:41:03;8.50;99.90
67897;DHT22;54698;48.428;9.964;2022-10-13T01:43:36;8.50;99.90
67897;DHT22;54698;48.428;9.964;2022-10-13T01:46:07;8.60;99.90
67897;DHT22;54698;48.428;9.964;2022-10-13T01:48:37;8.70;99.90
67897;DHT22;54698;48.428;9.964;2022-10-13T01:51:06;8.70;99.90
67897;DHT22;54698;48.428;9.964;2022-10-13T01:53:34;8.80;99.90
67897;DHT22;54698;48.428;9.964;2022-10-13T01:56:00;8.80;99.90
67897;DHT22;54698;48.428;9.964;2022-10-13T01:58:29;8.70;99.90
67897;DHT22;54698;48.428;9.964;2022-10-13T02:01:08;8.70;99.90
67897;DHT22;54698;48.428;9.964;2022-10-13T02:03:46;8.60;99.90
67897;DHT22;54698;48.428;9.964;2022-10-13T02:06:21;8.50;99.90
67897;DHT22;54698;48.428;9.964;2022-10-13T02:08:56;8.40;99.90
67897;DHT22;54698;48.428;9.964;2022-10-13T02:11:26;8.20;99.90
67897;DHT22;54698;48.428;9.964;2022-10-13T02:13:58;8.00;99.90
67897;DHT22;54698;48.428;9.964;2022-10-13T02:16:30;8.00;99.90
67897;DHT22;54698;48.428;9.964;2022-10-13T02:18:59;8.00;99.90
67897;DHT22;54698;48.428;9.964;2022-10-13T02:21:28;8.00;99.90
67897;DHT22;54698;48.428;9.964;2022-10-13T02:23:54;8.10;99.90
67897;DHT22;54698;48.428;9.964;2022-10-13T02:26:20;8.30;99.90
67897;DHT22;54698;48.428;9.964;2022-10-13T02:28:46;8.40;99.90
67897;DHT22;54698;48.428;9.964;2022-10-13T02:31:12;8.60;99.90
67897;DHT22;54698;48.428;9.964;2022-10-13T02:33:40;8.80;99.90
67897;DHT22;54698;48.428;9.964;2022-10-13T02:36:06;8.90;99.90
67897;DHT22;54698;48.428;9.964;2022-10-13T02:38:32;9.00;99.90
67897;DHT22;54698;48.428;9.964;2022-10-13T02:40:59;9.10;99.90
67897;DHT22;54698;48.428;9.964;2022-10-13T02:43:25;9.20;99.90
67897;DHT22;54698;48.428;9.964;2022-10-13T02:45:51;9.30;99.90
67897;DHT22;54698;48.428;9.964;2022-10-13T02:48:17;9.30;99.90
67897;DHT22;54698;48.428;9.964;2022-10-13T02:50:45;9.40;99.90
67897;DHT22;54698;48.428;9.964;2022-10-13T02:53:11;9.40;99.90
67897;DHT22;54698;48.428;9.964;2022-10-13T02:55:37;9.50;99.90
67897;DHT22;54698;48.428;9.964;2022-10-13T02:58:03;9.50;99.90
67897;DHT22;54698;48.428;9.964;2022-10-13T03:00:29;9.50;99.90
67897;DHT22;54698;48.428;9.964;2022-10-13T03:02:55;9.60;99.90
67897;DHT22;54698;48.428;9.964;2022-10-13T03:05:21;9.60;99.90
67897;DHT22;54698;48.428;9.964;2022-10-13T03:07:48;9.70;99.90
67897;DHT22;54698;48.428;9.964;2022-10-13T03:10:14;9.80;99.90
67897;DHT22;54698;48.428;9.964;2022-10-13T03:12:41;9.80;99.90
67897;DHT22;54698;48.428;9.964;2022-10-13T03:15:07;9.90;99.90
67897;DHT22;54698;48.428;9.964;2022-10-13T03:17:34;10.00;99.90
67897;DHT22;54698;48.428;9.964;2022-10-13T03:20:00;10.00;99.90
67897;DHT22;54698;48.428;9.964;2022-10-13T03:22:25;10.00;99.90
67897;DHT22;54698;48.428;9.964;2022-10-13T03:24:53;10.00;99.90
67897;DHT22;54698;48.428;9.964;2022-10-13T03:27:22;9.90;99.90
67897;DHT22;54698;48.428;9.964;2022-10-13T03:29:49;9.70;99.90
67897;DHT22;54698;48.428;9.964;2022-10-13T03:32:15;9.70;99.90
67897;DHT22;54698;48.428;9.964;2022-10-13T03:34:41;9.60;99.90
67897;DHT22;54698;48.428;9.964;2022-10-13T03:37:07;9.70;99.90
67897;DHT22;54698;48.428;9.964;2022-10-13T03:39:33;9.60;99.90
67897;DHT22;54698;48.428;9.964;2022-10-13T03:42:01;9.60;99.90
67897;DHT22;54698;48.428;9.964;2022-10-13T03:44:29;9.60;99.90
67897;DHT22;54698;48.428;9.964;2022-10-13T03:46:55;9.70;99.90
67897;DHT22;54698;48.428;9.964;2022-10-13T03:49:27;9.70;99.90
67897;DHT22;54698;48.428;9.964;2022-10-13T03:51:56;9.70;99.90
67897;DHT22;54698;48.428;9.964;2022-10-13T03:54:22;9.70;99.90
67897;DHT22;54698;48.428;9.964;2022-10-13T03:56:48;9.70;99.90
67897;DHT22;54698;48.428;9.964;2022-10-13T03:59:15;9.70;99.90
67897;DHT22;54698;48.428;9.964;2022-10-13T04:01:41;9.70;99.90
67897;DHT22;54698;48.428;9.964;2022-10-13T04:04:09;9.70;99.90
67897;DHT22;54698;48.428;9.964;2022-10-13T04:06:36;9.70;99.90
67897;DHT22;54698;48.428;9.964;2022-10-13T04:09:04;9.80;99.90
67897;DHT22;54698;48.428;9.964;2022-10-13T04:11:30;9.80;99.90
67897;DHT22;54698;48.428;9.964;2022-10-13T04:13:56;9.90;99.90
67897;DHT22;54698;48.428;9.964;2022-10-13T04:16:26;10.00;99.90
67897;DHT22;54698;48.428;9.964;2022-10-13T04:18:54;10.00;99.90
67897;DHT22;54698;48.428;9.964;2022-10-13T04:21:22;9.90;99.90
67897;DHT22;54698;48.428;9.964;2022-10-13T04:23:49;9.90;99.90
67897;DHT22;54698;48.428;9.964;2022-10-13T04:26:16;9.90;99.90
67897;DHT22;54698;48.428;9.964;2022-10-13T04:28:47;9.90;99.90
67897;DHT22;54698;48.428;9.964;2022-10-13T04:31:14;10.00;99.90
67897;DHT22;54698;48.428;9.964;2022-10-13T04:33:42;9.90;99.90
67897;DHT22;54698;48.428;9.964;2022-10-13T04:36:10;10.00;99.90
67897;DHT22;54698;48.428;9.964;2022-10-13T04:38:37;10.10;99.90
67897;DHT22;54698;48.428;9.964;2022-10-13T04:41:03;10.10;99.90
67897;DHT22;54698;48.428;9.964;2022-10-13T04:43:30;10.10;99.90
67897;DHT22;54698;48.428;9.964;2022-10-13T04:45:59;10.10;99.90
67897;DHT22;54698;48.428;9.964;2022-10-13T04:48:25;10.10;99.90
67897;DHT22;54698;48.428;9.964;2022-10-13T04:50:59;10.10;99.90
67897;DHT22;54698;48.428;9.964;2022-10-13T04:53:26;10.20;99.90
67897;DHT22;54698;48.428;9.964;2022-10-13T04:55:52;10.20;99.90
67897;DHT22;54698;48.428;9.964;2022-10-13T04:58:18;10.20;99.90
67897;DHT22;54698;48.428;9.964;2022-10-13T05:00:45;10.20;99.90
67897;DHT22;54698;48.428;9.964;2022-10-13T05:03:11;10.20;99.90
67897;DHT22;54698;48.428;9.964;2022-10-13T05:05:37;10.30;99.90
67897;DHT22;54698;48.428;9.964;2022-10-13T05:08:04;10.30;99.90
67897;DHT22;54698;48.428;9.964;2022-10-13T05:10:30;10.30;99.90
67897;DHT22;54698;48.428;9.964;2022-10-13T05:13:02;10.30;99.90
67897;DHT22;54698;48.428;9.964;2022-10-13T05:15:32;10.40;99.90
67897;DHT22;54698;48.428;9.964;2022-10-13T05:17:58;10.30;99.90
67897;DHT22;54698;48.428;9.964;2022-10-13T05:20:24;10.30;99.90
67897;DHT22;54698;48.428;9.964;2022-10-13T05:22:50;10.30;99.90
67897;DHT22;54698;48.428;9.964;2022-10-13T05:25:17;10.30;99.90
67897;DHT22;54698;48.428;9.964;2022-10-13T05:27:47;10.30;99.90
67897;DHT22;54698;48.428;9.964;2022-10-13T05:30:13;10.30;99.90
67897;DHT22;54698;48.428;9.964;2022-10-13T05:32:39;10.30;99.90
67897;DHT22;54698;48.428;9.964;2022-10-13T05:35:06;10.30;99.90
67897;DHT22;54698;48.428;9.964;2022-10-13T05:37:32;10.30;99.90
67897;DHT22;54698;48.428;9.964;2022-10-13T05:39:58;10.30;99.90
67897;DHT22;54698;48.428;9.964;2022-10-13T05:42:27;10.30;99.90
67897;DHT22;54698;48.428;9.964;2022-10-13T05:44:54;10.30;99.90
67897;DHT22;54698;48.428;9.964;2022-10-13T05:47:21;10.30;99.90
67897;DHT22;54698;48.428;9.964;2022-10-13T05:49:47;10.30;99.90
67897;DHT22;54698;48.428;9.964;2022-10-13T05:52:13;10.30;99.90
67897;DHT22;54698;48.428;9.964;2022-10-13T05:54:40;10.30;99.90
67897;DHT22;54698;48.428;9.964;2022-10-13T05:57:11;10.30;99.90
67897;DHT22;54698;48.428;9.964;2022-10-13T05:59:43;10.40;99.90
67897;DHT22;54698;48.428;9.964;2022-10-13T06:02:15;10.40;99.90
67897;DHT22;54698;48.428;9.964;2022-10-13T06:04:44;10.40;99.90
67897;DHT22;54698;48.428;9.964;2022-10-13T06:07:12;10.30;99.90
67897;DHT22;54698;48.428;9.964;2022-10-13T06:09:39;10.40;99.90
67897;DHT22;54698;48.428;9.964;2022-10-13T06:12:07;10.40;99.90
67897;DHT22;54698;48.428;9.964;2022-10-13T06:14:34;10.40;99.90
67897;DHT22;54698;48.428;9.964;2022-10-13T06:17:01;10.40;99.90
67897;DHT22;54698;48.428;9.964;2022-10-13T06:19:27;10.40;99.90
67897;DHT22;54698;48.428;9.964;2022-10-13T06:21:53;10.40;99.90
67897;DHT22;54698;48.428;9.964;2022-10-13T06:24:19;10.40;99.90
67897;DHT22;54698;48.428;9.964;2022-10-13T06:26:45;10.40;99.90
67897;DHT22;54698;48.428;9.964;2022-10-13T06:29:10;10.50;99.90
67897;DHT22;54698;48.428;9.964;2022-10-13T06:31:36;10.60;99.90
67897;DHT22;54698;48.428;9.964;2022-10-13T06:34:03;10.60;99.90
67897;DHT22;54698;48.428;9.964;2022-10-13T06:36:29;10.60;99.90
67897;DHT22;54698;48.428;9.964;2022-10-13T06:38:55;10.60;99.90
67897;DHT22;54698;48.428;9.964;2022-10-13T06:41:21;10.70;99.90
67897;DHT22;54698;48.428;9.964;2022-10-13T06:43:47;10.80;99.90
67897;DHT22;54698;48.428;9.964;2022-10-13T06:46:13;10.80;99.90
67897;DHT22;54698;48.428;9.964;2022-10-13T06:48:39;10.90;99.90
67897;DHT22;54698;48.428;9.964;2022-10-13T06:51:07;10.80;99.90
67897;DHT22;54698;48.428;9.964;2022-10-13T06:53:35;11.00;99.90
67897;DHT22;54698;48.428;9.964;2022-10-13T06:56:03;11.00;99.90
67897;DHT22;54698;48.428;9.964;2022-10-13T06:58:30;11.10;99.90
67897;DHT22;54698;48.428;9.964;2022-10-13T07:00:56;11.20;99.90
67897;DHT22;54698;48.428;9.964;2022-10-13T07:03:22;11.20;99.90
67897;DHT22;54698;48.428;9.964;2022-10-13T07:05:48;11.30;99.90
67897;DHT22;54698;48.428;9.964;2022-10-13T07:08:15;11.30;99.90
67897;DHT22;54698;48.428;9.964;2022-10-13T07:10:41;11.20;99.90
67897;DHT22;54698;48.428;9.964;2022-10-13T07:13:08;11.30;99.90
67897;DHT22;54698;48.428;9.964;2022-10-13T07:15:36;11.30;99.90
67897;DHT22;54698;48.428;9.964;2022-10-13T07:18:02;11.30;99.90
67897;DHT22;54698;48.428;9.964;2022-10-13T07:20:28;11.20;99.90
67897;DHT22;54698;48.428;9.964;2022-10-13T07:22:54;11.20;99.90
67897;DHT22;54698;48.428;9.964;2022-10-13T07:25:21;11.10;99.90
67897;DHT22;54698;48.428;9.964;2022-10-13T07:27:47;11.00;99.90
67897;DHT22;54698;48.428;9.964;2022-10-13T07:30:13;11.10;99.90
67897;DHT22;54698;48.428;9.964;2022-10-13T07:32:39;11.10;99.90
67897;DHT22;54698;48.428;9.964;2022-10-13T07:35:05;11.10;99.90
67897;DHT22;54698;48.428;9.964;2022-10-13T07:37:31;11.20;99.90
67897;DHT22;54698;48.428;9.964;2022-10-13T07:39:57;11.30;99.90
67897;DHT22;54698;48.428;9.964;2022-10-13T07:42:24;11.40;99.90
67897;DHT22;54698;48.428;9.964;2022-10-13T07:44:50;11.50;99.90
67897;DHT22;54698;48.428;9.964;2022-10-13T07:47:16;11.60;99.90
67897;DHT22;54698;48.428;9.964;2022-10-13T07:49:42;11.70;99.90
67897;DHT22;54698;48.428;9.964;2022-10-13T07:52:07;11.70;99.90
67897;DHT22;54698;48.428;9.964;2022-10-13T07:54:33;11.70;99.90
67897;DHT22;54698;48.428;9.964;2022-10-13T07:56:59;11.80;99.90
67897;DHT22;54698;48.428;9.964;2022-10-13T07:59:26;11.80;99.90
67897;DHT22;54698;48.428;9.964;2022-10-13T08:01:52;11.80;99.90
67897;DHT22;54698;48.428;9.964;2022-10-13T08:04:18;12.00;99.90
67897;DHT22;54698;48.428;9.964;2022-10-13T08:06:44;12.20;99.90
67897;DHT22;54698;48.428;9.964;2022-10-13T08:09:10;12.50;99.90
67897;DHT22;54698;48.428;9.964;2022-10-13T08:11:49;12.70;99.90
67897;DHT22;54698;48.428;9.964;2022-10-13T08:14:36;12.90;99.90
67897;DHT22;54698;48.428;9.964;2022-10-13T08:17:02;13.20;99.90
67897;DHT22;54698;48.428;9.964;2022-10-13T08:19:41;13.10;99.90
67897;DHT22;54698;48.428;9.964;2022-10-13T08:22:10;13.10;99.90
67897;DHT22;54698;48.428;9.964;2022-10-13T08:25:12;13.40;99.90
67897;DHT22;54698;48.428;9.964;2022-10-13T08:27:39;13.50;99.90
67897;DHT22;54698;48.428;9.964;2022-10-13T08:30:08;13.60;99.90
67897;DHT22;54698;48.428;9.964;2022-10-13T08:32:35;13.70;99.90
67897;DHT22;54698;48.428;9.964;2022-10-13T08:35:01;13.90;99.90
67897;DHT22;54698;48.428;9.964;2022-10-13T08:37:27;14.00;99.90
67897;DHT22;54698;48.428;9.964;2022-10-13T08:39:54;14.10;99.90
67897;DHT22;54698;48.428;9.964;2022-10-13T08:42:20;14.10;99.90
67897;DHT22;54698;48.428;9.964;2022-10-13T08:44:50;14.10;99.90
67897;DHT22;54698;48.428;9.964;2022-10-13T08:47:26;14.10;99.90
67897;DHT22;54698;48.428;9.964;2022-10-13T08:50:04;13.80;99.90
67897;DHT22;54698;48.428;9.964;2022-10-13T08:52:45;13.90;99.90
67897;DHT22;54698;48.428;9.964;2022-10-13T08:55:19;13.80;99.90
67897;DHT22;54698;48.428;9.964;2022-10-13T08:57:48;13.70;99.90
67897;DHT22;54698;48.428;9.964;2022-10-13T09:00:15;13.60;99.90
67897;DHT22;54698;48.428;9.964;2022-10-13T09:02:43;13.50;99.90
67897;DHT22;54698;48.428;9.964;2022-10-13T09:05:15;13.40;99.90
67897;DHT22;54698;48.428;9.964;2022-10-13T09:07:47;13.50;99.90
67897;DHT22;54698;48.428;9.964;2022-10-13T09:10:14;13.50;99.90
67897;DHT22;54698;48.428;9.964;2022-10-13T09:12:40;13.60;99.90
67897;DHT22;54698;48.428;9.964;2022-10-13T09:15:07;13.70;99.90
67897;DHT22;54698;48.428;9.964;2022-10-13T09:17:37;13.90;99.90
67897;DHT22;54698;48.428;9.964;2022-10-13T09:20:13;14.20;99.90
67897;DHT22;54698;48.428;9.964;2022-10-13T09:22:43;14.40;99.90
67897;DHT22;54698;48.428;9.964;2022-10-13T09:25:18;14.60;99.90
67897;DHT22;54698;48.428;9.964;2022-10-13T09:27:47;14.80;99.90
67897;DHT22;54698;48.428;9.964;2022-10-13T09:30:26;14.90;99.90
67897;DHT22;54698;48.428;9.964;2022-10-13T09:33:14;14.90;99.90
67897;DHT22;54698;48.428;9.964;2022-10-13T09:35:46;14.90;99.90
67897;DHT22;54698;48.428;9.964;2022-10-13T09:38:15;15.10;99.90
67897;DHT22;54698;48.428;9.964;2022-10-13T09:40:42;14.90;99.90
67897;DHT22;54698;48.428;9.964;2022-10-13T09:43:23;14.80;99.90
67897;DHT22;54698;48.428;9.964;2022-10-13T09:45:52;14.90;99.90
67897;DHT22;54698;48.428;9.964;2022-10-13T09:48:22;15.20;99.90
67897;DHT22;54698;48.428;9.964;2022-10-13T09:50:53;15.40;99.90
67897;DHT22;54698;48.428;9.964;2022-10-13T09:53:25;15.50;99.90
67897;DHT22;54698;48.428;9.964;2022-10-13T09:56:18;15.60;99.90
67897;DHT22;54698;48.428;9.964;2022-10-13T09:58:50;15.40;99.90
67897;DHT22;54698;48.428;9.964;2022-10-13T10:01:25;15.50;99.90
67897;DHT22;54698;48.428;9.964;2022-10-13T10:03:57;15.60;99.90
67897;DHT22;54698;48.428;9.964;2022-10-13T10:06:25;15.80;99.90
67897;DHT22;54698;48.428;9.964;2022-10-13T10:09:27;15.80;99.90
67897;DHT22;54698;48.428;9.964;2022-10-13T10:11:58;15.70;99.90
67897;DHT22;54698;48.428;9.964;2022-10-13T10:14:27;15.60;99.90
67897;DHT22;54698;48.428;9.964;2022-10-13T10:17:00;15.60;99.90
67897;DHT22;54698;48.428;9.964;2022-10-13T10:19:42;15.50;99.90
67897;DHT22;54698;48.428;9.964;2022-10-13T10:22:17;15.60;99.90
67897;DHT22;54698;48.428;9.964;2022-10-13T10:24:54;15.80;99.90
67897;DHT22;54698;48.428;9.964;2022-10-13T10:27:29;16.00;99.90
67897;DHT22;54698;48.428;9.964;2022-10-13T10:30:02;16.20;99.90
67897;DHT22;54698;48.428;9.964;2022-10-13T10:32:37;16.40;99.90
67897;DHT22;54698;48.428;9.964;2022-10-13T10:35:11;16.50;99.90
67897;DHT22;54698;48.428;9.964;2022-10-13T10:37:54;16.50;99.90
67897;DHT22;54698;48.428;9.964;2022-10-13T10:40:34;16.60;99.90
67897;DHT22;54698;48.428;9.964;2022-10-13T10:43:20;16.70;99.90
67897;DHT22;54698;48.428;9.964;2022-10-13T10:46:13;16.60;99.90
67897;DHT22;54698;48.428;9.964;2022-10-13T10:48:44;16.30;99.90
67897;DHT22;54698;48.428;9.964;2022-10-13T10:51:12;16.10;99.90
67897;DHT22;54698;48.428;9.964;2022-10-13T10:53:47;16.10;99.90
67897;DHT22;54698;48.428;9.964;2022-10-13T10:56:26;16.20;99.90
67897;DHT22;54698;48.428;9.964;2022-10-13T10:59:06;16.20;99.90
67897;DHT22;54698;48.428;9.964;2022-10-13T11:01:44;16.40;99.90
67897;DHT22;54698;48.428;9.964;2022-10-13T11:04:38;16.20;99.90
67897;DHT22;54698;48.428;9.964;2022-10-13T11:07:09;16.10;99.90
67897;DHT22;54698;48.428;9.964;2022-10-13T11:10:00;16.30;99.90
67897;DHT22;54698;48.428;9.964;2022-10-13T11:12:46;16.40;99.90
67897;DHT22;54698;48.428;9.964;2022-10-13T11:15:18;16.60;99.90
67897;DHT22;54698;48.428;9.964;2022-10-13T11:17:47;16.50;99.90
67897;DHT22;54698;48.428;9.964;2022-10-13T11:20:47;16.40;99.90
67897;DHT22;54698;48.428;9.964;2022-10-13T11:23:32;16.30;99.90
67897;DHT22;54698;48.428;9.964;2022-10-13T11:26:28;16.60;99.90
67897;DHT22;54698;48.428;9.964;2022-10-13T11:29:15;16.80;99.90
67897;DHT22;54698;48.428;9.964;2022-10-13T11:31:48;16.70;99.90
67897;DHT22;54698;48.428;9.964;2022-10-13T11:34:30;16.50;99.90
67897;DHT22;54698;48.428;9.964;2022-10-13T11:37:00;16.40;99.90
67897;DHT22;54698;48.428;9.964;2022-10-13T11:39:54;16.30;99.90
67897;DHT22;54698;48.428;9.964;2022-10-13T11:42:41;16.20;99.90
67897;DHT22;54698;48.428;9.964;2022-10-13T11:45:31;16.20;99.90
67897;DHT22;54698;48.428;9.964;2022-10-13T11:51:25;16.10;99.90
67897;DHT22;54698;48.428;9.964;2022-10-13T11:53:59;16.00;99.90
67897;DHT22;54698;48.428;9.964;2022-10-13T11:56:33;16.00;99.90
67897;DHT22;54698;48.428;9.964;2022-10-13T11:59:01;15.90;99.90
67897;DHT22;54698;48.428;9.964;2022-10-13T12:01:27;16.00;99.90
67897;DHT22;54698;48.428;9.964;2022-10-13T12:03:53;16.00;99.90
67897;DHT22;54698;48.428;9.964;2022-10-13T12:06:26;15.80;99.90
67897;DHT22;54698;48.428;9.964;2022-10-13T12:08:55;15.80;99.90
67897;DHT22;54698;48.428;9.964;2022-10-13T12:11:23;15.90;99.90
67897;DHT22;54698;48.428;9.964;2022-10-13T12:13:51;16.00;99.90
67897;DHT22;54698;48.428;9.964;2022-10-13T12:16:20;16.10;99.90
67897;DHT22;54698;48.428;9.964;2022-10-13T12:18:46;16.10;99.90
67897;DHT22;54698;48.428;9.964;2022-10-13T12:21:14;16.00;99.90
67897;DHT22;54698;48.428;9.964;2022-10-13T12:23:40;16.10;99.90
67897;DHT22;54698;48.428;9.964;2022-10-13T12:26:07;16.00;99.90
67897;DHT22;54698;48.428;9.964;2022-10-13T12:28:47;16.00;99.90
67897;DHT22;54698;48.428;9.964;2022-10-13T12:31:19;16.10;99.90
67897;DHT22;54698;48.428;9.964;2022-10-13T12:33:51;16.10;99.90
67897;DHT22;54698;48.428;9.964;2022-10-13T12:36:21;16.00;99.90
67897;DHT22;54698;48.428;9.964;2022-10-13T12:38:52;16.00;99.90
67897;DHT22;54698;48.428;9.964;2022-10-13T12:41:24;16.00;99.90
67897;DHT22;54698;48.428;9.964;2022-10-13T12:43:52;15.90;99.90
67897;DHT22;54698;48.428;9.964;2022-10-13T12:46:36;15.90;99.90
67897;DHT22;54698;48.428;9.964;2022-10-13T12:49:03;15.90;99.90
67897;DHT22;54698;48.428;9.964;2022-10-13T12:51:29;15.90;99.90
67897;DHT22;54698;48.428;9.964;2022-10-13T12:53:55;15.90;99.90
67897;DHT22;54698;48.428;9.964;2022-10-13T12:56:26;15.90;99.90
67897;DHT22;54698;48.428;9.964;2022-10-13T12:58:53;16.00;99.90
67897;DHT22;54698;48.428;9.964;2022-10-13T13:01:28;16.10;99.90
67897;DHT22;54698;48.428;9.964;2022-10-13T13:03:59;16.20;99.90
67897;DHT22;54698;48.428;9.964;2022-10-13T13:06:31;16.20;99.90
67897;DHT22;54698;48.428;9.964;2022-10-13T13:09:20;16.30;99.90
67897;DHT22;54698;48.428;9.964;2022-10-13T13:12:03;16.10;99.90
67897;DHT22;54698;48.428;9.964;2022-10-13T13:14:45;16.10;99.90
67897;DHT22;54698;48.428;9.964;2022-10-13T13:17:13;16.00;99.90
67897;DHT22;54698;48.428;9.964;2022-10-13T13:19:48;16.00;99.90
67897;DHT22;54698;48.428;9.964;2022-10-13T13:22:16;16.10;99.90
67897;DHT22;54698;48.428;9.964;2022-10-13T13:24:42;16.10;99.90
67897;DHT22;54698;48.428;9.964;2022-10-13T13:27:22;16.10;99.90
67897;DHT22;54698;48.428;9.964;2022-10-13T13:29:49;16.20;99.90
67897;DHT22;54698;48.428;9.964;2022-10-13T13:32:17;16.20;99.90
67897;DHT22;54698;48.428;9.964;2022-10-13T13:34:44;16.30;99.90
67897;DHT22;54698;48.428;9.964;2022-10-13T13:37:14;16.50;99.90
67897;DHT22;54698;48.428;9.964;2022-10-13T13:39:45;16.80;99.90
67897;DHT22;54698;48.428;9.964;2022-10-13T13:42:13;17.30;99.90
67897;DHT22;54698;48.428;9.964;2022-10-13T13:44:39;17.50;99.90
67897;DHT22;54698;48.428;9.964;2022-10-13T13:47:11;17.60;99.90
67897;DHT22;54698;48.428;9.964;2022-10-13T13:49:40;17.90;99.90
67897;DHT22;54698;48.428;9.964;2022-10-13T13:52:06;18.10;99.90
67897;DHT22;54698;48.428;9.964;2022-10-13T13:54:33;18.00;99.90
67897;DHT22;54698;48.428;9.964;2022-10-13T13:56:59;17.80;99.90
67897;DHT22;54698;48.428;9.964;2022-10-13T13:59:24;17.30;99.90
67897;DHT22;54698;48.428;9.964;2022-10-13T14:01:50;17.00;99.90
67897;DHT22;54698;48.428;9.964;2022-10-13T14:04:16;17.10;99.90
67897;DHT22;54698;48.428;9.964;2022-10-13T14:06:42;17.70;99.90
67897;DHT22;54698;48.428;9.964;2022-10-13T14:09:08;18.50;99.90
67897;DHT22;54698;48.428;9.964;2022-10-13T14:11:35;19.00;99.90
67897;DHT22;54698;48.428;9.964;2022-10-13T14:14:00;19.20;99.90
67897;DHT22;54698;48.428;9.964;2022-10-13T14:16:27;18.90;99.90
67897;DHT22;54698;48.428;9.964;2022-10-13T14:18:52;18.20;99.90
67897;DHT22;54698;48.428;9.964;2022-10-13T14:21:20;17.80;99.90
67897;DHT22;54698;48.428;9.964;2022-10-13T14:23:46;17.40;99.90
67897;DHT22;54698;48.428;9.964;2022-10-13T14:26:13;17.20;99.90
67897;DHT22;54698;48.428;9.964;2022-10-13T14:28:41;16.90;99.90
67897;DHT22;54698;48.428;9.964;2022-10-13T14:31:07;16.70;99.90
67897;DHT22;54698;48.428;9.964;2022-10-13T14:33:34;16.60;99.90
67897;DHT22;54698;48.428;9.964;2022-10-13T14:36:00;16.60;99.90
67897;DHT22;54698;48.428;9.964;2022-10-13T14:38:26;16.40;99.90
67897;DHT22;54698;48.428;9.964;2022-10-13T14:40:52;16.30;99.90
67897;DHT22;54698;48.428;9.964;2022-10-13T14:43:17;16.20;99.90
67897;DHT22;54698;48.428;9.964;2022-10-13T14:45:45;16.00;99.90
67897;DHT22;54698;48.428;9.964;2022-10-13T14:48:10;15.90;99.90
67897;DHT22;54698;48.428;9.964;2022-10-13T14:50:36;15.90;99.90
67897;DHT22;54698;48.428;9.964;2022-10-13T14:53:02;15.90;99.90
67897;DHT22;54698;48.428;9.964;2022-10-13T14:55:28;15.90;99.90
67897;DHT22;54698;48.428;9.964;2022-10-13T14:57:56;15.80;99.90
67897;DHT22;54698;48.428;9.964;2022-10-13T15:00:22;15.70;99.90
67897;DHT22;54698;48.428;9.964;2022-10-13T15:02:49;15.80;99.90
67897;DHT22;54698;48.428;9.964;2022-10-13T15:05:15;15.70;99.90
67897;DHT22;54698;48.428;9.964;2022-10-13T15:07:41;15.60;99.90
67897;DHT22;54698;48.428;9.964;2022-10-13T15:10:07;15.60;99.90
67897;DHT22;54698;48.428;9.964;2022-10-13T15:12:36;15.50;99.90
67897;DHT22;54698;48.428;9.964;2022-10-13T15:15:03;15.50;99.90
67897;DHT22;54698;48.428;9.964;2022-10-13T15:17:29;15.50;99.90
67897;DHT22;54698;48.428;9.964;2022-10-13T15:19:57;15.40;99.90
67897;DHT22;54698;48.428;9.964;2022-10-13T15:22:23;15.40;99.90
67897;DHT22;54698;48.428;9.964;2022-10-13T15:24:49;15.50;99.90
67897;DHT22;54698;48.428;9.964;2022-10-13T15:27:18;15.60;99.90
67897;DHT22;54698;48.428;9.964;2022-10-13T15:33:00;15.70;99.90
67897;DHT22;54698;48.428;9.964;2022-10-13T15:35:29;15.60;99.90
67897;DHT22;54698;48.428;9.964;2022-10-13T15:37:55;15.50;99.90
67897;DHT22;54698;48.428;9.964;2022-10-13T15:40:24;15.30;99.90
67897;DHT22;54698;48.428;9.964;2022-10-13T15:42:52;15.20;99.90
67897;DHT22;54698;48.428;9.964;2022-10-13T15:47:51;15.10;99.90
67897;DHT22;54698;48.428;9.964;2022-10-13T15:50:17;15.00;99.90
67897;DHT22;54698;48.428;9.964;2022-10-13T15:53:03;15.00;99.90
67897;DHT22;54698;48.428;9.964;2022-10-13T15:55:38;14.90;99.90
67897;DHT22;54698;48.428;9.964;2022-10-13T15:58:05;14.80;99.90
67897;DHT22;54698;48.428;9.964;2022-10-13T16:00:31;14.70;99.90
67897;DHT22;54698;48.428;9.964;2022-10-13T16:02:57;14.60;99.90